sensor_id;sensor_type;location;lat;lon;timestamp;temperature;humidity
6581;DHT22;3324;50.796;7.228;2023-09-07T00:02:20;18.30;99.90
6581;DHT22;3324;50.796;7.228;2023-09-07T00:04:45;18.30;99.90
6581;DHT22;3324;50.796;7.228;2023-09-07T00:07:11;18.30;99.90
6581;DHT22;3324;50.796;7.228;2023-09-07T00:09:37;18.30;99.90
6581;DHT22;3324;50.796;7.228;2023-09-07T00:12:03;18.20;99.90
6581;DHT22;3324;50.796;7.228;2023-09-07T00:14:28;18.20;99.90
6581;DHT22;3324;50.796;7.228;2023-09-07T00:16:54;18.10;99.90
6581;DHT22;3324;50.796;7.228;2023-09-07T00:19:20;18.10;99.90
6581;DHT22;3324;50.796;7.228;2023-09-07T00:21:45;18.10;99.90
6581;DHT22;3324;50.796;7.228;2023-09-07T00:24:11;18.10;99.90
6581;DHT22;3324;50.796;7.228;2023-09-07T00:26:36;18.00;99.90
6581;DHT22;3324;50.796;7.228;2023-09-07T00:29:02;18.00;99.90
6581;DHT22;3324;50.796;7.228;2023-09-07T00:31:27;17.90;99.90
6581;DHT22;3324;50.796;7.228;2023-09-07T00:33:53;17.90;99.90
6581;DHT22;3324;50.796;7.228;2023-09-07T00:36:19;17.90;99.90
6581;DHT22;3324;50.796;7.228;2023-09-07T00:38:44;17.90;99.90
6581;DHT22;3324;50.796;7.228;2023-09-07T00:41:12;17.90;99.90
6581;DHT22;3324;50.796;7.228;2023-09-07T00:43:38;17.80;99.90
6581;DHT22;3324;50.796;7.228;2023-09-07T00:46:06;17.80;99.90
6581;DHT22;3324;50.796;7.228;2023-09-07T00:48:32;17.80;99.90
6581;DHT22;3324;50.796;7.228;2023-09-07T00:50:59;17.80;99.90
6581;DHT22;3324;50.796;7.228;2023-09-07T00:53:27;17.70;99.90
6581;DHT22;3324;50.796;7.228;2023-09-07T00:55:55;17.70;99.90
6581;DHT22;3324;50.796;7.228;2023-09-07T00:58:21;17.70;99.90
6581;DHT22;3324;50.796;7.228;2023-09-07T01:00:47;17.70;99.90
6581;DHT22;3324;50.796;7.228;2023-09-07T01:03:13;17.60;99.90
6581;DHT22;3324;50.796;7.228;2023-09-07T01:05:57;17.60;99.90
6581;DHT22;3324;50.796;7.228;2023-09-07T01:08:26;17.60;99.90
6581;DHT22;3324;50.796;7.228;2023-09-07T01:10:54;17.60;99.90
6581;DHT22;3324;50.796;7.228;2023-09-07T01:13:21;17.60;99.90
6581;DHT22;3324;50.796;7.228;2023-09-07T01:15:47;17.60;99.90
6581;DHT22;3324;50.796;7.228;2023-09-07T01:18:13;17.60;99.90
6581;DHT22;3324;50.796;7.228;2023-09-07T01:20:40;17.60;99.90
6581;DHT22;3324;50.796;7.228;2023-09-07T01:23:07;17.60;99.90
6581;DHT22;3324;50.796;7.228;2023-09-07T01:25:33;17.60;99.90
6581;DHT22;3324;50.796;7.228;2023-09-07T01:27:59;17.50;99.90
6581;DHT22;3324;50.796;7.228;2023-09-07T01:30:27;17.50;99.90
6581;DHT22;3324;50.796;7.228;2023-09-07T01:32:53;17.50;99.90
6581;DHT22;3324;50.796;7.228;2023-09-07T01:35:19;17.40;99.90
6581;DHT22;3324;50.796;7.228;2023-09-07T01:37:47;17.40;99.90
6581;DHT22;3324;50.796;7.228;2023-09-07T01:40:13;17.40;99.90
6581;DHT22;3324;50.796;7.228;2023-09-07T01:42:38;17.40;99.90
6581;DHT22;3324;50.796;7.228;2023-09-07T01:45:05;17.40;99.90
6581;DHT22;3324;50.796;7.228;2023-09-07T01:47:30;17.30;99.90
6581;DHT22;3324;50.796;7.228;2023-09-07T01:49:56;17.30;99.90
6581;DHT22;3324;50.796;7.228;2023-09-07T01:52:22;17.20;99.90
6581;DHT22;3324;50.796;7.228;2023-09-07T01:54:47;17.20;99.90
6581;DHT22;3324;50.796;7.228;2023-09-07T01:57:13;17.20;99.90
6581;DHT22;3324;50.796;7.228;2023-09-07T01:59:38;17.20;99.90
6581;DHT22;3324;50.796;7.228;2023-09-07T02:02:04;17.20;99.90
6581;DHT22;3324;50.796;7.228;2023-09-07T02:04:30;17.20;99.90
6581;DHT22;3324;50.796;7.228;2023-09-07T02:06:55;17.20;99.90
6581;DHT22;3324;50.796;7.228;2023-09-07T02:09:21;17.20;99.90
6581;DHT22;3324;50.796;7.228;2023-09-07T02:11:46;17.10;99.90
6581;DHT22;3324;50.796;7.228;2023-09-07T02:14:12;17.10;99.90
6581;DHT22;3324;50.796;7.228;2023-09-07T02:16:37;17.10;99.90
6581;DHT22;3324;50.796;7.228;2023-09-07T02:19:04;17.20;99.90
6581;DHT22;3324;50.796;7.228;2023-09-07T02:21:30;17.20;99.90
6581;DHT22;3324;50.796;7.228;2023-09-07T02:23:55;17.20;99.90
6581;DHT22;3324;50.796;7.228;2023-09-07T02:26:21;17.10;99.90
6581;DHT22;3324;50.796;7.228;2023-09-07T02:28:46;17.10;99.90
6581;DHT22;3324;50.796;7.228;2023-09-07T02:31:12;17.00;99.90
6581;DHT22;3324;50.796;7.228;2023-09-07T02:33:38;16.90;99.90
6581;DHT22;3324;50.796;7.228;2023-09-07T02:36:03;17.10;99.90
6581;DHT22;3324;50.796;7.228;2023-09-07T02:38:29;17.00;99.90
6581;DHT22;3324;50.796;7.228;2023-09-07T02:40:57;17.00;99.90
6581;DHT22;3324;50.796;7.228;2023-09-07T02:43:23;16.90;99.90
6581;DHT22;3324;50.796;7.228;2023-09-07T02:45:49;17.00;99.90
6581;DHT22;3324;50.796;7.228;2023-09-07T02:48:15;16.90;99.90
6581;DHT22;3324;50.796;7.228;2023-09-07T02:50:41;16.90;99.90
6581;DHT22;3324;50.796;7.228;2023-09-07T02:53:08;16.80;99.90
6581;DHT22;3324;50.796;7.228;2023-09-07T02:55:33;16.80;99.90
6581;DHT22;3324;50.796;7.228;2023-09-07T02:58:02;16.80;99.90
6581;DHT22;3324;50.796;7.228;2023-09-07T03:00:28;16.70;99.90
6581;DHT22;3324;50.796;7.228;2023-09-07T03:02:54;16.70;99.90
6581;DHT22;3324;50.796;7.228;2023-09-07T03:05:19;16.70;99.90
6581;DHT22;3324;50.796;7.228;2023-09-07T03:07:46;16.70;99.90
6581;DHT22;3324;50.796;7.228;2023-09-07T03:10:12;16.70;99.90
6581;DHT22;3324;50.796;7.228;2023-09-07T03:12:38;16.70;99.90
6581;DHT22;3324;50.796;7.228;2023-09-07T03:15:04;16.70;99.90
6581;DHT22;3324;50.796;7.228;2023-09-07T03:17:30;16.70;99.90
6581;DHT22;3324;50.796;7.228;2023-09-07T03:19:56;16.80;99.90
6581;DHT22;3324;50.796;7.228;2023-09-07T03:22:22;16.80;99.90
6581;DHT22;3324;50.796;7.228;2023-09-07T03:24:50;16.80;99.90
6581;DHT22;3324;50.796;7.228;2023-09-07T03:27:18;16.80;99.90
6581;DHT22;3324;50.796;7.228;2023-09-07T03:29:45;16.80;99.90
6581;DHT22;3324;50.796;7.228;2023-09-07T03:32:11;16.70;99.90
6581;DHT22;3324;50.796;7.228;2023-09-07T03:34:37;16.70;99.90
6581;DHT22;3324;50.796;7.228;2023-09-07T03:37:02;16.60;99.90
6581;DHT22;3324;50.796;7.228;2023-09-07T03:39:31;16.60;99.90
6581;DHT22;3324;50.796;7.228;2023-09-07T03:41:57;16.50;99.90
6581;DHT22;3324;50.796;7.228;2023-09-07T03:44:22;16.50;99.90
6581;DHT22;3324;50.796;7.228;2023-09-07T03:46:48;16.50;99.90
6581;DHT22;3324;50.796;7.228;2023-09-07T03:49:14;16.50;99.90
6581;DHT22;3324;50.796;7.228;2023-09-07T03:51:39;16.50;99.90
6581;DHT22;3324;50.796;7.228;2023-09-07T03:54:05;16.50;99.90
6581;DHT22;3324;50.796;7.228;2023-09-07T03:56:30;16.50;99.90
6581;DHT22;3324;50.796;7.228;2023-09-07T03:58:56;16.50;99.90
6581;DHT22;3324;50.796;7.228;2023-09-07T04:01:21;16.50;99.90
6581;DHT22;3324;50.796;7.228;2023-09-07T04:03:47;16.50;99.90
6581;DHT22;3324;50.796;7.228;2023-09-07T04:06:12;16.50;99.90
6581;DHT22;3324;50.796;7.228;2023-09-07T04:08:38;16.50;99.90
6581;DHT22;3324;50.796;7.228;2023-09-07T04:11:04;16.40;99.90
6581;DHT22;3324;50.796;7.228;2023-09-07T04:13:30;16.30;99.90
6581;DHT22;3324;50.796;7.228;2023-09-07T04:15:56;16.40;99.90
6581;DHT22;3324;50.796;7.228;2023-09-07T04:18:22;16.30;99.90
6581;DHT22;3324;50.796;7.228;2023-09-07T04:20:47;16.30;99.90
6581;DHT22;3324;50.796;7.228;2023-09-07T04:23:13;16.30;99.90
6581;DHT22;3324;50.796;7.228;2023-09-07T04:25:38;16.30;99.90
6581;DHT22;3324;50.796;7.228;2023-09-07T04:28:05;16.30;99.90
6581;DHT22;3324;50.796;7.228;2023-09-07T04:30:32;16.30;99.90
6581;DHT22;3324;50.796;7.228;2023-09-07T04:32:57;16.20;99.90
6581;DHT22;3324;50.796;7.228;2023-09-07T04:35:30;16.20;99.90
6581;DHT22;3324;50.796;7.228;2023-09-07T04:37:56;16.10;99.90
6581;DHT22;3324;50.796;7.228;2023-09-07T04:40:22;16.10;99.90
6581;DHT22;3324;50.796;7.228;2023-09-07T04:42:48;16.00;99.90
6581;DHT22;3324;50.796;7.228;2023-09-07T04:45:14;16.00;99.90
6581;DHT22;3324;50.796;7.228;2023-09-07T04:47:39;16.00;99.90
6581;DHT22;3324;50.796;7.228;2023-09-07T04:50:05;15.90;99.90
6581;DHT22;3324;50.796;7.228;2023-09-07T04:52:31;15.90;99.90
6581;DHT22;3324;50.796;7.228;2023-09-07T04:54:57;15.90;99.90
6581;DHT22;3324;50.796;7.228;2023-09-07T04:57:23;15.90;99.90
6581;DHT22;3324;50.796;7.228;2023-09-07T04:59:48;15.90;99.90
6581;DHT22;3324;50.796;7.228;2023-09-07T05:02:14;15.90;99.90
6581;DHT22;3324;50.796;7.228;2023-09-07T05:04:39;15.90;99.90
6581;DHT22;3324;50.796;7.228;2023-09-07T05:07:05;15.90;99.90
6581;DHT22;3324;50.796;7.228;2023-09-07T05:09:30;15.90;99.90
6581;DHT22;3324;50.796;7.228;2023-09-07T05:11:57;15.90;99.90
6581;DHT22;3324;50.796;7.228;2023-09-07T05:14:26;15.90;99.90
6581;DHT22;3324;50.796;7.228;2023-09-07T05:16:51;16.00;99.90
6581;DHT22;3324;50.796;7.228;2023-09-07T05:19:18;16.00;99.90
6581;DHT22;3324;50.796;7.228;2023-09-07T05:21:43;16.10;99.90
6581;DHT22;3324;50.796;7.228;2023-09-07T05:24:09;16.10;99.90
6581;DHT22;3324;50.796;7.228;2023-09-07T05:26:34;16.10;99.90
6581;DHT22;3324;50.796;7.228;2023-09-07T05:29:00;16.20;99.90
6581;DHT22;3324;50.796;7.228;2023-09-07T05:31:26;16.20;99.90
6581;DHT22;3324;50.796;7.228;2023-09-07T05:33:52;16.20;99.90
6581;DHT22;3324;50.796;7.228;2023-09-07T05:36:18;16.30;99.90
6581;DHT22;3324;50.796;7.228;2023-09-07T05:38:43;16.30;99.90
6581;DHT22;3324;50.796;7.228;2023-09-07T05:41:09;16.30;99.90
6581;DHT22;3324;50.796;7.228;2023-09-07T05:43:34;16.40;99.90
6581;DHT22;3324;50.796;7.228;2023-09-07T05:46:00;16.40;99.90
6581;DHT22;3324;50.796;7.228;2023-09-07T05:48:25;16.50;99.90
6581;DHT22;3324;50.796;7.228;2023-09-07T05:50:51;16.50;99.90
6581;DHT22;3324;50.796;7.228;2023-09-07T05:53:19;16.60;99.90
6581;DHT22;3324;50.796;7.228;2023-09-07T05:55:45;16.70;99.90
6581;DHT22;3324;50.796;7.228;2023-09-07T05:58:12;16.80;99.90
6581;DHT22;3324;50.796;7.228;2023-09-07T06:00:38;16.80;99.90
6581;DHT22;3324;50.796;7.228;2023-09-07T06:03:06;16.90;99.90
6581;DHT22;3324;50.796;7.228;2023-09-07T06:05:33;17.00;99.90
6581;DHT22;3324;50.796;7.228;2023-09-07T06:08:00;17.00;99.90
6581;DHT22;3324;50.796;7.228;2023-09-07T06:10:28;17.10;99.90
6581;DHT22;3324;50.796;7.228;2023-09-07T06:12:54;17.10;99.90
6581;DHT22;3324;50.796;7.228;2023-09-07T06:15:20;17.20;99.90
6581;DHT22;3324;50.796;7.228;2023-09-07T06:17:46;17.30;99.90
6581;DHT22;3324;50.796;7.228;2023-09-07T06:20:11;17.40;99.90
6581;DHT22;3324;50.796;7.228;2023-09-07T06:22:37;17.50;99.90
6581;DHT22;3324;50.796;7.228;2023-09-07T06:25:02;17.50;99.90
6581;DHT22;3324;50.796;7.228;2023-09-07T06:27:28;17.60;99.90
6581;DHT22;3324;50.796;7.228;2023-09-07T06:29:53;17.60;99.90
6581;DHT22;3324;50.796;7.228;2023-09-07T06:32:19;17.70;99.90
6581;DHT22;3324;50.796;7.228;2023-09-07T06:34:45;17.70;99.90
6581;DHT22;3324;50.796;7.228;2023-09-07T06:37:11;17.80;99.90
6581;DHT22;3324;50.796;7.228;2023-09-07T06:39:37;17.90;99.90
6581;DHT22;3324;50.796;7.228;2023-09-07T06:42:03;17.90;99.90
6581;DHT22;3324;50.796;7.228;2023-09-07T06:44:29;18.00;99.90
6581;DHT22;3324;50.796;7.228;2023-09-07T06:46:54;18.10;99.90
6581;DHT22;3324;50.796;7.228;2023-09-07T06:49:21;18.10;99.90
6581;DHT22;3324;50.796;7.228;2023-09-07T06:51:47;18.20;99.90
6581;DHT22;3324;50.796;7.228;2023-09-07T06:54:12;18.30;99.90
6581;DHT22;3324;50.796;7.228;2023-09-07T06:56:38;18.40;99.90
6581;DHT22;3324;50.796;7.228;2023-09-07T06:59:04;18.50;99.90
6581;DHT22;3324;50.796;7.228;2023-09-07T07:01:29;18.50;99.90
6581;DHT22;3324;50.796;7.228;2023-09-07T07:03:55;18.60;99.90
6581;DHT22;3324;50.796;7.228;2023-09-07T07:06:22;18.80;99.90
6581;DHT22;3324;50.796;7.228;2023-09-07T07:08:48;18.80;99.90
6581;DHT22;3324;50.796;7.228;2023-09-07T07:11:13;18.90;99.90
6581;DHT22;3324;50.796;7.228;2023-09-07T07:13:39;19.00;99.90
6581;DHT22;3324;50.796;7.228;2023-09-07T07:16:04;19.00;99.90
6581;DHT22;3324;50.796;7.228;2023-09-07T07:18:30;19.20;99.90
6581;DHT22;3324;50.796;7.228;2023-09-07T07:20:56;19.30;99.90
6581;DHT22;3324;50.796;7.228;2023-09-07T07:23:21;19.40;99.90
6581;DHT22;3324;50.796;7.228;2023-09-07T07:25:47;19.50;99.90
6581;DHT22;3324;50.796;7.228;2023-09-07T07:28:12;19.70;99.90
6581;DHT22;3324;50.796;7.228;2023-09-07T07:30:39;19.80;99.90
6581;DHT22;3324;50.796;7.228;2023-09-07T07:33:08;19.90;99.90
6581;DHT22;3324;50.796;7.228;2023-09-07T07:35:34;20.00;99.90
6581;DHT22;3324;50.796;7.228;2023-09-07T07:38:00;20.10;99.90
6581;DHT22;3324;50.796;7.228;2023-09-07T07:40:26;20.20;99.90
6581;DHT22;3324;50.796;7.228;2023-09-07T07:42:53;20.30;99.90
6581;DHT22;3324;50.796;7.228;2023-09-07T07:45:19;20.40;99.90
6581;DHT22;3324;50.796;7.228;2023-09-07T07:47:53;20.60;99.90
6581;DHT22;3324;50.796;7.228;2023-09-07T07:50:19;20.70;99.90
6581;DHT22;3324;50.796;7.228;2023-09-07T07:52:45;20.80;99.90
6581;DHT22;3324;50.796;7.228;2023-09-07T07:55:11;20.90;99.90
6581;DHT22;3324;50.796;7.228;2023-09-07T07:57:37;21.10;99.90
6581;DHT22;3324;50.796;7.228;2023-09-07T08:00:04;21.20;99.90
6581;DHT22;3324;50.796;7.228;2023-09-07T08:02:30;21.30;99.90
6581;DHT22;3324;50.796;7.228;2023-09-07T08:04:57;21.40;99.90
6581;DHT22;3324;50.796;7.228;2023-09-07T08:07:23;21.50;99.90
6581;DHT22;3324;50.796;7.228;2023-09-07T08:09:48;21.60;99.90
6581;DHT22;3324;50.796;7.228;2023-09-07T08:12:16;21.70;99.90
6581;DHT22;3324;50.796;7.228;2023-09-07T08:14:42;21.80;99.90
6581;DHT22;3324;50.796;7.228;2023-09-07T08:17:08;21.80;99.90
6581;DHT22;3324;50.796;7.228;2023-09-07T08:19:34;22.00;99.90
6581;DHT22;3324;50.796;7.228;2023-09-07T08:22:00;22.10;99.90
6581;DHT22;3324;50.796;7.228;2023-09-07T08:24:28;22.10;99.90
6581;DHT22;3324;50.796;7.228;2023-09-07T08:26:54;22.20;99.90
6581;DHT22;3324;50.796;7.228;2023-09-07T08:29:21;22.40;99.90
6581;DHT22;3324;50.796;7.228;2023-09-07T08:31:50;22.50;99.90
6581;DHT22;3324;50.796;7.228;2023-09-07T08:34:16;22.60;99.90
6581;DHT22;3324;50.796;7.228;2023-09-07T08:36:41;22.60;99.90
6581;DHT22;3324;50.796;7.228;2023-09-07T08:39:07;22.80;99.90
6581;DHT22;3324;50.796;7.228;2023-09-07T08:41:44;22.90;99.90
6581;DHT22;3324;50.796;7.228;2023-09-07T08:44:11;23.00;99.90
6581;DHT22;3324;50.796;7.228;2023-09-07T08:46:38;23.10;99.90
6581;DHT22;3324;50.796;7.228;2023-09-07T08:49:03;23.20;99.90
6581;DHT22;3324;50.796;7.228;2023-09-07T08:51:30;23.30;99.90
6581;DHT22;3324;50.796;7.228;2023-09-07T08:53:57;23.30;99.90
6581;DHT22;3324;50.796;7.228;2023-09-07T08:56:23;23.50;99.90
6581;DHT22;3324;50.796;7.228;2023-09-07T08:58:49;23.70;99.90
6581;DHT22;3324;50.796;7.228;2023-09-07T09:01:15;23.80;99.90
6581;DHT22;3324;50.796;7.228;2023-09-07T09:03:45;23.80;99.90
6581;DHT22;3324;50.796;7.228;2023-09-07T09:06:11;24.00;99.90
6581;DHT22;3324;50.796;7.228;2023-09-07T09:08:53;24.00;99.90
6581;DHT22;3324;50.796;7.228;2023-09-07T09:11:19;24.20;99.90
6581;DHT22;3324;50.796;7.228;2023-09-07T09:13:46;24.30;99.90
6581;DHT22;3324;50.796;7.228;2023-09-07T09:16:13;24.40;99.90
6581;DHT22;3324;50.796;7.228;2023-09-07T09:18:47;24.50;99.90
6581;DHT22;3324;50.796;7.228;2023-09-07T09:21:14;24.60;99.90
6581;DHT22;3324;50.796;7.228;2023-09-07T09:23:40;24.70;99.90
6581;DHT22;3324;50.796;7.228;2023-09-07T09:26:06;24.80;99.90
6581;DHT22;3324;50.796;7.228;2023-09-07T09:28:32;24.90;99.90
6581;DHT22;3324;50.796;7.228;2023-09-07T09:30:59;25.00;99.90
6581;DHT22;3324;50.796;7.228;2023-09-07T09:33:25;25.10;99.90
6581;DHT22;3324;50.796;7.228;2023-09-07T09:35:52;25.20;99.90
6581;DHT22;3324;50.796;7.228;2023-09-07T09:38:19;25.30;99.90
6581;DHT22;3324;50.796;7.228;2023-09-07T09:40:45;25.40;99.90
6581;DHT22;3324;50.796;7.228;2023-09-07T09:43:12;25.40;99.90
6581;DHT22;3324;50.796;7.228;2023-09-07T09:45:38;25.50;99.90
6581;DHT22;3324;50.796;7.228;2023-09-07T09:48:05;25.60;99.90
6581;DHT22;3324;50.796;7.228;2023-09-07T09:50:31;25.70;99.90
6581;DHT22;3324;50.796;7.228;2023-09-07T09:52:59;25.80;99.90
6581;DHT22;3324;50.796;7.228;2023-09-07T09:55:25;25.90;99.90
6581;DHT22;3324;50.796;7.228;2023-09-07T09:57:51;26.00;99.90
6581;DHT22;3324;50.796;7.228;2023-09-07T10:00:17;26.20;99.90
6581;DHT22;3324;50.796;7.228;2023-09-07T10:02:47;26.30;99.90
6581;DHT22;3324;50.796;7.228;2023-09-07T10:05:13;26.40;99.90
6581;DHT22;3324;50.796;7.228;2023-09-07T10:07:50;26.50;99.90
6581;DHT22;3324;50.796;7.228;2023-09-07T10:10:17;26.50;99.90
6581;DHT22;3324;50.796;7.228;2023-09-07T10:12:45;26.70;99.90
6581;DHT22;3324;50.796;7.228;2023-09-07T10:15:27;26.80;99.90
6581;DHT22;3324;50.796;7.228;2023-09-07T10:18:08;26.90;99.90
6581;DHT22;3324;50.796;7.228;2023-09-07T10:21:06;27.00;99.90
6581;DHT22;3324;50.796;7.228;2023-09-07T10:23:42;27.10;99.90
6581;DHT22;3324;50.796;7.228;2023-09-07T10:26:13;27.20;99.90
6581;DHT22;3324;50.796;7.228;2023-09-07T10:28:39;27.30;99.90
6581;DHT22;3324;50.796;7.228;2023-09-07T10:31:06;27.30;99.90
6581;DHT22;3324;50.796;7.228;2023-09-07T10:33:33;27.30;99.90
6581;DHT22;3324;50.796;7.228;2023-09-07T10:35:59;27.40;99.90
6581;DHT22;3324;50.796;7.228;2023-09-07T10:38:25;27.50;99.90
6581;DHT22;3324;50.796;7.228;2023-09-07T10:40:59;27.60;99.90
6581;DHT22;3324;50.796;7.228;2023-09-07T10:43:26;27.60;99.90
6581;DHT22;3324;50.796;7.228;2023-09-07T10:45:53;27.70;99.90
6581;DHT22;3324;50.796;7.228;2023-09-07T10:48:19;27.70;99.90
6581;DHT22;3324;50.796;7.228;2023-09-07T10:50:45;27.80;99.90
6581;DHT22;3324;50.796;7.228;2023-09-07T10:53:14;27.70;99.90
6581;DHT22;3324;50.796;7.228;2023-09-07T10:55:41;27.90;99.90
6581;DHT22;3324;50.796;7.228;2023-09-07T10:58:08;28.00;99.90
6581;DHT22;3324;50.796;7.228;2023-09-07T11:00:34;28.20;99.90
6581;DHT22;3324;50.796;7.228;2023-09-07T11:03:07;28.30;99.90
6581;DHT22;3324;50.796;7.228;2023-09-07T11:05:35;28.30;99.90
6581;DHT22;3324;50.796;7.228;2023-09-07T11:08:06;28.30;99.90
6581;DHT22;3324;50.796;7.228;2023-09-07T11:10:33;28.40;99.90
6581;DHT22;3324;50.796;7.228;2023-09-07T11:13:03;28.40;99.90
6581;DHT22;3324;50.796;7.228;2023-09-07T11:15:30;28.50;99.90
6581;DHT22;3324;50.796;7.228;2023-09-07T11:17:56;28.70;99.90
6581;DHT22;3324;50.796;7.228;2023-09-07T11:20:23;28.70;99.90
6581;DHT22;3324;50.796;7.228;2023-09-07T11:22:49;28.80;99.90
6581;DHT22;3324;50.796;7.228;2023-09-07T11:25:15;28.70;99.90
6581;DHT22;3324;50.796;7.228;2023-09-07T11:27:41;28.70;99.90
6581;DHT22;3324;50.796;7.228;2023-09-07T11:30:07;28.80;99.90
6581;DHT22;3324;50.796;7.228;2023-09-07T11:32:37;28.80;99.90
6581;DHT22;3324;50.796;7.228;2023-09-07T11:35:04;28.90;99.90
6581;DHT22;3324;50.796;7.228;2023-09-07T11:37:33;29.00;99.90
6581;DHT22;3324;50.796;7.228;2023-09-07T11:39:59;29.10;99.90
6581;DHT22;3324;50.796;7.228;2023-09-07T11:42:24;29.10;99.90
6581;DHT22;3324;50.796;7.228;2023-09-07T11:44:50;29.20;99.90
6581;DHT22;3324;50.796;7.228;2023-09-07T11:47:16;29.20;99.90
6581;DHT22;3324;50.796;7.228;2023-09-07T11:49:41;29.30;99.90
6581;DHT22;3324;50.796;7.228;2023-09-07T11:52:07;29.40;99.90
6581;DHT22;3324;50.796;7.228;2023-09-07T11:54:33;29.50;99.90
6581;DHT22;3324;50.796;7.228;2023-09-07T11:58:12;29.60;99.90
6581;DHT22;3324;50.796;7.228;2023-09-07T12:00:38;29.70;99.90
6581;DHT22;3324;50.796;7.228;2023-09-07T12:03:46;29.70;99.90
6581;DHT22;3324;50.796;7.228;2023-09-07T12:07:42;29.80;99.90
6581;DHT22;3324;50.796;7.228;2023-09-07T12:10:11;29.70;99.90
6581;DHT22;3324;50.796;7.228;2023-09-07T12:13:40;29.80;99.90
6581;DHT22;3324;50.796;7.228;2023-09-07T12:18:06;29.90;99.90
6581;DHT22;3324;50.796;7.228;2023-09-07T12:25:30;30.00;99.90
6581;DHT22;3324;50.796;7.228;2023-09-07T12:30:26;30.10;99.80
6581;DHT22;3324;50.796;7.228;2023-09-07T12:34:48;30.20;99.10
6581;DHT22;3324;50.796;7.228;2023-09-07T12:37:19;30.20;99.30
6581;DHT22;3324;50.796;7.228;2023-09-07T12:40:50;30.20;97.80
6581;DHT22;3324;50.796;7.228;2023-09-07T12:58:05;30.40;96.40
6581;DHT22;3324;50.796;7.228;2023-09-07T13:41:34;30.60;94.00
6581;DHT22;3324;50.796;7.228;2023-09-07T15:29:54;29.90;90.20
6581;DHT22;3324;50.796;7.228;2023-09-07T15:34:46;29.80;89.90
6581;DHT22;3324;50.796;7.228;2023-09-07T15:39:00;29.70;90.60
6581;DHT22;3324;50.796;7.228;2023-09-07T15:41:26;29.60;91.10
6581;DHT22;3324;50.796;7.228;2023-09-07T15:44:31;29.50;89.70
6581;DHT22;3324;50.796;7.228;2023-09-07T15:46:57;29.40;91.20
6581;DHT22;3324;50.796;7.228;2023-09-07T15:50:43;29.20;91.70
6581;DHT22;3324;50.796;7.228;2023-09-07T15:53:09;29.10;91.90
6581;DHT22;3324;50.796;7.228;2023-09-07T15:55:35;29.10;91.20
6581;DHT22;3324;50.796;7.228;2023-09-07T15:58:00;29.00;91.40
6581;DHT22;3324;50.796;7.228;2023-09-07T16:00:26;28.90;91.90
6581;DHT22;3324;50.796;7.228;2023-09-07T16:02:51;28.90;91.40
6581;DHT22;3324;50.796;7.228;2023-09-07T16:05:17;28.80;91.20
6581;DHT22;3324;50.796;7.228;2023-09-07T16:07:43;28.80;92.00
6581;DHT22;3324;50.796;7.228;2023-09-07T16:10:08;28.70;92.20
6581;DHT22;3324;50.796;7.228;2023-09-07T16:12:35;28.60;91.90
6581;DHT22;3324;50.796;7.228;2023-09-07T16:15:01;28.50;91.90
6581;DHT22;3324;50.796;7.228;2023-09-07T16:17:27;28.40;91.90
6581;DHT22;3324;50.796;7.228;2023-09-07T16:19:52;28.40;91.90
6581;DHT22;3324;50.796;7.228;2023-09-07T16:22:18;28.40;92.00
6581;DHT22;3324;50.796;7.228;2023-09-07T16:24:44;28.30;91.10
6581;DHT22;3324;50.796;7.228;2023-09-07T16:27:10;28.30;91.70
6581;DHT22;3324;50.796;7.228;2023-09-07T16:29:35;28.20;92.60
6581;DHT22;3324;50.796;7.228;2023-09-07T16:32:01;28.10;92.80
6581;DHT22;3324;50.796;7.228;2023-09-07T16:34:27;28.00;93.20
6581;DHT22;3324;50.796;7.228;2023-09-07T16:36:53;28.00;93.10
6581;DHT22;3324;50.796;7.228;2023-09-07T16:39:19;28.00;93.40
6581;DHT22;3324;50.796;7.228;2023-09-07T16:41:44;27.90;93.80
6581;DHT22;3324;50.796;7.228;2023-09-07T16:44:10;27.90;94.00
6581;DHT22;3324;50.796;7.228;2023-09-07T16:46:35;27.80;94.30
6581;DHT22;3324;50.796;7.228;2023-09-07T16:49:01;27.70;95.00
6581;DHT22;3324;50.796;7.228;2023-09-07T16:51:26;27.60;95.50
6581;DHT22;3324;50.796;7.228;2023-09-07T16:53:52;27.60;95.80
6581;DHT22;3324;50.796;7.228;2023-09-07T16:56:19;27.60;96.00
6581;DHT22;3324;50.796;7.228;2023-09-07T16:58:46;27.60;95.80
6581;DHT22;3324;50.796;7.228;2023-09-07T17:01:12;27.50;96.60
6581;DHT22;3324;50.796;7.228;2023-09-07T17:03:37;27.50;97.50
6581;DHT22;3324;50.796;7.228;2023-09-07T17:06:03;27.40;97.80
6581;DHT22;3324;50.796;7.228;2023-09-07T17:08:28;27.30;98.10
6581;DHT22;3324;50.796;7.228;2023-09-07T17:10:54;27.20;99.20
6581;DHT22;3324;50.796;7.228;2023-09-07T17:13:20;27.20;99.90
6581;DHT22;3324;50.796;7.228;2023-09-07T17:15:49;27.10;99.90
6581;DHT22;3324;50.796;7.228;2023-09-07T17:18:14;27.10;99.90
6581;DHT22;3324;50.796;7.228;2023-09-07T17:20:40;27.00;99.90
6581;DHT22;3324;50.796;7.228;2023-09-07T17:23:06;27.00;99.90
6581;DHT22;3324;50.796;7.228;2023-09-07T17:25:32;26.90;99.90
6581;DHT22;3324;50.796;7.228;2023-09-07T17:27:59;26.90;99.90
6581;DHT22;3324;50.796;7.228;2023-09-07T17:30:25;26.80;99.90
6581;DHT22;3324;50.796;7.228;2023-09-07T17:32:52;26.70;99.90
6581;DHT22;3324;50.796;7.228;2023-09-07T17:35:23;26.70;99.90
6581;DHT22;3324;50.796;7.228;2023-09-07T17:37:49;26.70;99.90
6581;DHT22;3324;50.796;7.228;2023-09-07T17:40:15;26.70;99.90
6581;DHT22;3324;50.796;7.228;2023-09-07T17:42:42;26.60;99.90
6581;DHT22;3324;50.796;7.228;2023-09-07T17:45:08;26.50;99.90
6581;DHT22;3324;50.796;7.228;2023-09-07T17:47:33;26.50;99.90
6581;DHT22;3324;50.796;7.228;2023-09-07T17:49:59;26.40;99.90
6581;DHT22;3324;50.796;7.228;2023-09-07T17:52:25;26.40;99.90
6581;DHT22;3324;50.796;7.228;2023-09-07T17:54:51;26.40;99.90
6581;DHT22;3324;50.796;7.228;2023-09-07T17:57:16;26.30;99.90
6581;DHT22;3324;50.796;7.228;2023-09-07T17:59:42;26.30;99.90
6581;DHT22;3324;50.796;7.228;2023-09-07T18:02:22;26.20;99.90
6581;DHT22;3324;50.796;7.228;2023-09-07T18:04:53;26.20;99.90
6581;DHT22;3324;50.796;7.228;2023-09-07T18:07:20;26.10;99.90
6581;DHT22;3324;50.796;7.228;2023-09-07T18:09:46;26.00;99.90
6581;DHT22;3324;50.796;7.228;2023-09-07T18:12:11;25.90;99.90
6581;DHT22;3324;50.796;7.228;2023-09-07T18:14:37;25.90;99.90
6581;DHT22;3324;50.796;7.228;2023-09-07T18:17:03;25.80;99.90
6581;DHT22;3324;50.796;7.228;2023-09-07T18:19:29;25.70;99.90
6581;DHT22;3324;50.796;7.228;2023-09-07T18:21:55;25.60;99.90
6581;DHT22;3324;50.796;7.228;2023-09-07T18:24:20;25.50;99.90
6581;DHT22;3324;50.796;7.228;2023-09-07T18:26:46;25.40;99.90
6581;DHT22;3324;50.796;7.228;2023-09-07T18:29:15;25.30;99.90
6581;DHT22;3324;50.796;7.228;2023-09-07T18:31:41;25.20;99.90
6581;DHT22;3324;50.796;7.228;2023-09-07T18:34:06;25.20;99.90
6581;DHT22;3324;50.796;7.228;2023-09-07T18:36:32;25.20;99.90
6581;DHT22;3324;50.796;7.228;2023-09-07T18:38:58;25.20;99.90
6581;DHT22;3324;50.796;7.228;2023-09-07T18:41:23;25.20;99.90
6581;DHT22;3324;50.796;7.228;2023-09-07T18:43:49;25.10;99.90
6581;DHT22;3324;50.796;7.228;2023-09-07T18:46:14;25.10;99.90
6581;DHT22;3324;50.796;7.228;2023-09-07T18:48:40;25.10;99.90
6581;DHT22;3324;50.796;7.228;2023-09-07T18:51:06;25.00;99.90
6581;DHT22;3324;50.796;7.228;2023-09-07T18:53:33;25.00;99.90
6581;DHT22;3324;50.796;7.228;2023-09-07T18:56:08;24.90;99.90
6581;DHT22;3324;50.796;7.228;2023-09-07T18:58:35;24.90;99.90
6581;DHT22;3324;50.796;7.228;2023-09-07T19:01:15;24.70;99.90
6581;DHT22;3324;50.796;7.228;2023-09-07T19:03:44;24.70;99.90